Time;durP1;ratioP1;P1;durP2;ratioP2;P2;SDS_P1;SDS_P2;PMS_P1;PMS_P2;Temp;Humidity;BMP_temperature;BMP_pressure;BME280_temperature;BME280_humidity;BME280_pressure;Samples;Min_cycle;Max_cycle;Signal;HPM_P1;HPM_P2
2021/12/07 00:01:07;;;;;;;;;;;;;;;5.70;100.00;91785.50;5067456;28;19928;-78
2021/12/07 00:03:34;;;;;;;;;;;;;;;5.67;100.00;91793.56;5066688;28;20049;-78
2021/12/07 00:06:03;;;;;;;;;;;;;;;5.92;100.00;91793.44;5067307;28;19939;-78
2021/12/07 00:08:29;;;;;;;;;;;;;;;6.08;100.00;91791.31;5067022;28;19932;-78
2021/12/07 00:10:56;;;;;;;;;;;;;;;6.24;100.00;91795.03;5067169;28;19932;-78
2021/12/07 00:13:28;;;;;;;;;;;;;;;6.34;100.00;91802.91;5066476;28;19932;-78
2021/12/07 00:15:55;;;;;;;;;;;;;;;6.03;100.00;91803.94;5066805;28;20031;-78
2021/12/07 00:18:21;;;;;;;;;;;;;;;5.69;100.00;91805.09;5066991;28;19935;-78
2021/12/07 00:20:48;;;;;;;;;;;;;;;5.62;100.00;91807.72;5066711;28;19925;-78
2021/12/07 00:23:16;;;;;;;;;;;;;;;5.14;100.00;91816.84;5066726;28;19933;-78
2021/12/07 00:25:43;;;;;;;;;;;;;;;4.65;100.00;91811.59;5066402;28;21842;-78
2021/12/07 00:28:10;;;;;;;;;;;;;;;4.31;100.00;91813.59;5066230;28;19971;-78
2021/12/07 00:30:37;;;;;;;;;;;;;;;4.21;100.00;91832.59;5066248;28;19940;-78
2021/12/07 00:33:13;;;;;;;;;;;;;;;4.31;100.00;91832.19;5066431;28;19931;-78
2021/12/07 00:35:39;;;;;;;;;;;;;;;4.32;100.00;91835.47;5066300;28;19932;-79
2021/12/07 00:38:07;;;;;;;;;;;;;;;4.51;100.00;91843.97;5066537;28;19932;-79
2021/12/07 00:40:35;;;;;;;;;;;;;;;4.56;100.00;91844.13;5066385;28;19939;-78
2021/12/07 00:43:02;;;;;;;;;;;;;;;4.65;100.00;91839.56;5065771;28;20292;-78
2021/12/07 00:45:32;;;;;;;;;;;;;;;4.92;100.00;91841.91;5066050;28;19928;-77
2021/12/07 00:47:58;;;;;;;;;;;;;;;5.04;100.00;91845.31;5066189;28;20009;-77
2021/12/07 00:50:25;;;;;;;;;;;;;;;5.07;100.00;91841.59;5066385;28;19935;-78
2021/12/07 00:52:52;;;;;;;;;;;;;;;4.94;100.00;91842.47;5066256;28;19940;-78
2021/12/07 00:55:20;;;;;;;;;;;;;;;4.97;100.00;91859.88;5066177;28;19940;-78
2021/12/07 00:57:52;;;;;;;;;;;;;;;5.04;100.00;91875.88;5065893;28;19940;-78
2021/12/07 01:00:20;;;;;;;;;;;;;;;5.05;100.00;91874.09;5066128;28;19924;-78
2021/12/07 01:02:46;;;;;;;;;;;;;;;5.00;100.00;91876.50;5065763;28;19928;-78
2021/12/07 01:05:18;;;;;;;;;;;;;;;5.08;100.00;91874.47;5065874;28;19931;-78
2021/12/07 01:27:02;;;;;;;;;;;;;;;4.52;100.00;91840.44;5065682;28;19939;-78
2021/12/07 01:29:30;;;;;;;;;;;;;;;4.63;100.00;91828.84;5066017;28;19932;-78
2021/12/07 01:32:08;;;;;;;;;;;;;;;4.70;100.00;91831.31;5065639;28;19937;-78
2021/12/07 01:35:10;;;;;;;;;;;;;;;4.79;100.00;91828.31;5065591;28;19932;-78
2021/12/07 01:37:50;;;;;;;;;;;;;;;4.88;100.00;91822.94;5065284;28;19925;-78
2021/12/07 01:40:37;;;;;;;;;;;;;;;4.93;100.00;91823.09;5065931;28;19978;-79
2021/12/07 01:46:10;;;;;;;;;;;;;;;4.86;100.00;91792.63;5065586;28;19940;-79
2021/12/07 01:52:02;;;;;;;;;;;;;;;4.96;100.00;91807.44;5064814;28;19935;-79
2021/12/07 02:00:05;;;;;;;;;;;;;;;5.00;100.00;91783.09;5051096;28;20479;-80
2021/12/07 02:02:33;;;;;;;;;;;;;;;4.75;100.00;91781.38;5069406;28;19932;-79
2021/12/07 02:04:59;;;;;;;;;;;;;;;4.79;100.00;91779.19;5069208;28;19970;-79
2021/12/07 02:07:26;;;;;;;;;;;;;;;4.59;100.00;91785.25;5069510;28;19925;-79
2021/12/07 02:09:57;;;;;;;;;;;;;;;4.75;100.00;91783.91;5068944;28;19924;-79
2021/12/07 02:12:24;;;;;;;;;;;;;;;4.80;100.00;91780.75;5069236;28;19932;-79
2021/12/07 02:14:50;;;;;;;;;;;;;;;4.32;100.00;91762.56;5069287;28;19954;-79
2021/12/07 02:17:22;;;;;;;;;;;;;;;4.10;100.00;91759.56;5070378;28;20009;-78
2021/12/07 02:19:50;;;;;;;;;;;;;;;4.11;100.00;91763.66;5070413;28;19955;-78
2021/12/07 02:22:18;;;;;;;;;;;;;;;4.30;100.00;91763.75;5069338;28;20373;-78
2021/12/07 02:24:44;;;;;;;;;;;;;;;4.44;100.00;91760.09;5068665;28;19925;-79
2021/12/07 02:27:11;;;;;;;;;;;;;;;4.48;100.00;91768.09;5068941;28;19928;-79
2021/12/07 02:29:37;;;;;;;;;;;;;;;4.20;100.00;91764.97;5068737;28;20383;-78
2021/12/07 02:32:05;;;;;;;;;;;;;;;3.88;100.00;91758.13;5068904;28;20330;-78
2021/12/07 02:34:32;;;;;;;;;;;;;;;3.93;100.00;91756.75;5068287;28;19924;-78
2021/12/07 02:36:59;;;;;;;;;;;;;;;3.85;100.00;91757.78;5068661;28;19935;-78
2021/12/07 02:39:31;;;;;;;;;;;;;;;4.06;100.00;91760.94;5068950;28;19928;-78
2021/12/07 02:41:57;;;;;;;;;;;;;;;4.08;100.00;91754.69;5068672;28;19932;-78
2021/12/07 02:44:24;;;;;;;;;;;;;;;4.16;100.00;91757.97;5068547;28;19932;-79
2021/12/07 02:46:51;;;;;;;;;;;;;;;4.25;100.00;91760.06;5068512;28;19933;-79
2021/12/07 02:49:19;;;;;;;;;;;;;;;4.16;100.00;91755.44;5068564;28;19932;-78
2021/12/07 02:51:46;;;;;;;;;;;;;;;3.99;100.00;91761.00;5068521;28;19968;-79
2021/12/07 02:54:12;;;;;;;;;;;;;;;3.81;100.00;91754.06;5068228;28;19939;-78
2021/12/07 02:56:40;;;;;;;;;;;;;;;3.68;100.00;91753.16;5068363;28;19932;-78
2021/12/07 02:59:07;;;;;;;;;;;;;;;3.65;100.00;91755.34;5068184;28;19939;-78
2021/12/07 03:01:41;;;;;;;;;;;;;;;3.36;100.00;91754.88;5067954;28;19979;-78
2021/12/07 03:04:11;;;;;;;;;;;;;;;3.10;100.00;91744.59;5068243;28;19925;-78
2021/12/07 03:06:49;;;;;;;;;;;;;;;3.17;100.00;91750.47;5067686;28;19947;-78
2021/12/07 03:26:01;;;;;;;;;;;;;;;3.66;100.00;91749.28;5067752;28;19955;-77
2021/12/07 03:28:29;;;;;;;;;;;;;;;3.63;100.00;91745.38;5067808;28;19930;-77
2021/12/07 03:30:56;;;;;;;;;;;;;;;3.60;100.00;91741.50;5067893;28;19932;-79
2021/12/07 03:33:23;;;;;;;;;;;;;;;3.32;100.00;91745.13;5067954;28;19932;-79
2021/12/07 03:35:49;;;;;;;;;;;;;;;3.16;100.00;91738.72;5067719;28;19934;-79
2021/12/07 03:38:16;;;;;;;;;;;;;;;3.01;100.00;91744.03;5067685;28;19932;-79
2021/12/07 03:40:42;;;;;;;;;;;;;;;2.86;100.00;91743.53;5067525;28;19932;-79
2021/12/07 03:43:10;;;;;;;;;;;;;;;2.74;100.00;91745.88;5067747;28;19986;-79
2021/12/07 03:45:38;;;;;;;;;;;;;;;2.64;100.00;91739.44;5067494;28;19978;-79
2021/12/07 03:48:05;;;;;;;;;;;;;;;2.54;100.00;91744.13;5067143;28;20300;-79
2021/12/07 03:50:32;;;;;;;;;;;;;;;2.41;100.00;91739.88;5063874;28;19932;-79
2021/12/07 03:52:59;;;;;;;;;;;;;;;2.43;100.00;91735.38;5065514;28;19932;-78
2021/12/07 03:55:25;;;;;;;;;;;;;;;2.56;100.00;91734.59;5066123;28;19932;-78
2021/12/07 03:57:52;;;;;;;;;;;;;;;2.66;100.00;91739.25;5066722;28;19974;-77
2021/12/07 04:00:20;;;;;;;;;;;;;;;2.72;100.00;91735.94;5067330;28;21252;-78
2021/12/07 04:02:50;;;;;;;;;;;;;;;2.77;100.00;91738.66;5066992;28;19932;-77
2021/12/07 04:05:18;;;;;;;;;;;;;;;2.69;100.00;91731.25;5067173;28;20242;-78
2021/12/07 04:07:44;;;;;;;;;;;;;;;2.73;100.00;91734.94;5066728;28;19935;-78
2021/12/07 04:10:13;;;;;;;;;;;;;;;2.49;100.00;91734.59;5066633;28;19924;-78
2021/12/07 04:12:39;;;;;;;;;;;;;;;2.46;100.00;91737.50;5066817;28;19931;-78
2021/12/07 04:15:07;;;;;;;;;;;;;;;2.39;100.00;91744.34;5066273;28;19932;-78
2021/12/07 04:17:34;;;;;;;;;;;;;;;2.20;100.00;91734.03;5066420;28;20418;-78
2021/12/07 04:20:02;;;;;;;;;;;;;;;2.13;100.00;91740.84;5066596;28;19924;-78
2021/12/07 04:22:28;;;;;;;;;;;;;;;2.04;100.00;91744.53;5066278;28;19932;-77
2021/12/07 04:24:55;;;;;;;;;;;;;;;2.09;100.00;91735.38;5066200;28;19925;-78
2021/12/07 04:27:21;;;;;;;;;;;;;;;2.21;100.00;91743.19;5066600;28;19929;-77
2021/12/07 04:29:48;;;;;;;;;;;;;;;2.15;100.00;91743.97;5066280;28;19924;-78
2021/12/07 04:32:14;;;;;;;;;;;;;;;2.14;100.00;91744.94;5066089;28;19928;-78
2021/12/07 04:34:41;;;;;;;;;;;;;;;2.12;100.00;91747.66;5066080;28;19931;-78
2021/12/07 04:37:09;;;;;;;;;;;;;;;1.77;100.00;91747.03;5066532;28;19939;-78
2021/12/07 04:39:35;;;;;;;;;;;;;;;1.67;100.00;91747.41;5066744;28;19928;-78
2021/12/07 04:42:02;;;;;;;;;;;;;;;1.58;100.00;91745.03;5066097;28;19924;-78
2021/12/07 04:44:29;;;;;;;;;;;;;;;1.58;100.00;91745.03;5066284;28;19944;-78
2021/12/07 04:47:06;;;;;;;;;;;;;;;1.43;100.00;91742.66;5066258;28;19932;-78
2021/12/07 04:49:56;;;;;;;;;;;;;;;1.44;100.00;91741.69;5066119;28;19931;-78
2021/12/07 04:57:52;;;;;;;;;;;;;;;1.47;100.00;91740.53;5066558;28;20386;-78
2021/12/07 05:00:20;;;;;;;;;;;;;;;1.44;100.00;91739.16;5066844;28;19974;-78
2021/12/07 05:02:53;;;;;;;;;;;;;;;1.37;100.00;91737.59;5066828;28;19933;-78
2021/12/07 05:05:20;;;;;;;;;;;;;;;1.28;100.00;91745.34;5066030;28;19924;-78
2021/12/07 05:07:53;;;;;;;;;;;;;;;1.21;100.00;91749.63;5065913;28;19955;-78
2021/12/07 05:10:32;;;;;;;;;;;;;;;1.25;100.00;91753.31;5066020;28;19932;-78
2021/12/07 05:13:26;;;;;;;;;;;;;;;1.29;100.00;91749.44;5065642;28;20009;-78
2021/12/07 05:16:08;;;;;;;;;;;;;;;1.19;100.00;91747.28;5066086;28;19978;-78
2021/12/07 05:18:53;;;;;;;;;;;;;;;1.25;100.00;91752.53;5065892;28;19932;-78
2021/12/07 05:24:09;;;;;;;;;;;;;;;1.29;100.00;91744.38;5065800;28;19940;-77
2021/12/07 05:37:42;;;;;;;;;;;;;;;1.15;100.00;91757.97;5065415;28;20801;-77
2021/12/07 05:37:46;;;;;;;;;;;;;;;1.28;100.00;91759.75;5065565;28;21248;-77
2021/12/07 05:40:15;;;;;;;;;;;;;;;1.38;100.00;91755.09;5065359;28;20422;-78
2021/12/07 05:42:41;;;;;;;;;;;;;;;1.41;100.00;91754.75;5065274;28;19924;-78
2021/12/07 05:45:10;;;;;;;;;;;;;;;1.48;100.00;91748.91;5065658;28;20334;-78
2021/12/07 05:47:36;;;;;;;;;;;;;;;1.38;100.00;91747.53;5065296;28;19924;-78
2021/12/07 05:50:04;;;;;;;;;;;;;;;1.54;100.00;91750.69;5065619;28;19924;-78
2021/12/07 05:52:30;;;;;;;;;;;;;;;1.50;100.00;91746.97;5065336;28;20426;-78
2021/12/07 05:54:57;;;;;;;;;;;;;;;1.46;100.00;91744.03;5065522;28;20346;-78
2021/12/07 05:57:25;;;;;;;;;;;;;;;1.32;100.00;91740.69;5065764;28;20007;-78
2021/12/07 05:59:51;;;;;;;;;;;;;;;1.19;100.00;91741.41;5065473;28;19932;-78
2021/12/07 06:02:18;;;;;;;;;;;;;;;1.20;100.00;91750.56;5065303;28;20400;-78
2021/12/07 06:04:44;;;;;;;;;;;;;;;0.83;100.00;91753.31;5066768;28;19924;-77
2021/12/07 06:07:11;;;;;;;;;;;;;;;0.90;100.00;91745.78;5068530;28;19925;-77
2021/12/07 06:09:38;;;;;;;;;;;;;;;0.84;100.00;91742.25;5069442;28;20060;-77
2021/12/07 06:12:05;;;;;;;;;;;;;;;0.84;100.00;91751.56;5069191;28;19924;-77
2021/12/07 06:14:36;;;;;;;;;;;;;;;0.85;100.00;91753.13;5069064;28;19924;-77
2021/12/07 06:17:03;;;;;;;;;;;;;;;0.76;100.00;91748.25;5069330;28;20379;-77
2021/12/07 06:19:29;;;;;;;;;;;;;;;0.86;100.00;91747.91;5069626;28;19953;-77
2021/12/07 06:21:56;;;;;;;;;;;;;;;0.66;100.00;91750.31;5069714;28;19925;-77
2021/12/07 06:24:22;;;;;;;;;;;;;;;0.63;100.00;91754.00;5069505;28;20268;-77
2021/12/07 06:26:49;;;;;;;;;;;;;;;0.71;100.00;91753.06;5069631;28;19931;-77
2021/12/07 06:29:16;;;;;;;;;;;;;;;0.75;100.00;91756.00;5069446;28;19925;-77
2021/12/07 06:31:44;;;;;;;;;;;;;;;0.85;100.00;91751.41;5069286;28;20403;-76
2021/12/07 06:34:11;;;;;;;;;;;;;;;0.85;100.00;91758.19;5069438;28;19928;-77
2021/12/07 06:36:38;;;;;;;;;;;;;;;0.91;100.00;91755.69;5069518;28;19994;-78
2021/12/07 06:39:05;;;;;;;;;;;;;;;1.04;100.00;91751.66;5069097;28;19971;-77
2021/12/07 06:41:32;;;;;;;;;;;;;;;0.90;100.00;91755.88;5069490;28;20334;-77
2021/12/07 06:43:58;;;;;;;;;;;;;;;0.89;100.00;91759.38;5072999;28;19931;-77
2021/12/07 06:46:25;;;;;;;;;;;;;;;0.92;100.00;91748.88;5073022;28;19928;-77
2021/12/07 06:48:53;;;;;;;;;;;;;;;1.01;100.00;91750.28;5072459;28;20041;-77
2021/12/07 06:51:19;;;;;;;;;;;;;;;0.79;100.00;91747.09;5072907;28;19924;-77
2021/12/07 06:53:46;;;;;;;;;;;;;;;0.43;100.00;91748.03;5072758;28;19932;-77
2021/12/07 06:56:13;;;;;;;;;;;;;;;0.77;100.00;91746.47;5072614;28;19932;-77
2021/12/07 06:58:39;;;;;;;;;;;;;;;0.79;100.00;91747.09;5072511;28;19932;-77
2021/12/07 07:01:07;;;;;;;;;;;;;;;0.74;100.00;91739.28;5072824;28;19924;-80
2021/12/07 07:03:34;;;;;;;;;;;;;;;0.48;100.00;91758.34;5072735;28;19924;-80
2021/12/07 07:06:02;;;;;;;;;;;;;;;0.46;100.00;91748.44;5072834;28;19930;-79
2021/12/07 07:08:29;;;;;;;;;;;;;;;0.30;100.00;91749.50;5072441;28;19924;-79
2021/12/07 07:10:55;;;;;;;;;;;;;;;0.52;100.00;91746.91;5068800;28;19924;-79
2021/12/07 07:13:22;;;;;;;;;;;;;;;0.57;100.00;91754.72;5070789;28;19931;-79
2021/12/07 07:15:48;;;;;;;;;;;;;;;0.49;100.00;91758.19;5071606;28;19954;-79
2021/12/07 07:18:15;;;;;;;;;;;;;;;0.60;100.00;91751.06;5071951;28;19939;-79
2021/12/07 07:20:42;;;;;;;;;;;;;;;0.65;100.00;91756.34;5071813;28;19936;-79
2021/12/07 07:23:10;;;;;;;;;;;;;;;0.64;100.00;91758.06;5072088;28;19924;-80
2021/12/07 07:25:36;;;;;;;;;;;;;;;0.74;100.00;91759.50;5072577;28;19924;-79
2021/12/07 07:28:03;;;;;;;;;;;;;;;0.63;100.00;91756.53;5071861;28;19935;-79
2021/12/07 07:30:29;;;;;;;;;;;;;;;0.68;100.00;91760.25;5072246;28;19951;-79
2021/12/07 07:32:56;;;;;;;;;;;;;;;0.64;100.00;91755.53;5071836;28;19929;-79
2021/12/07 07:35:23;;;;;;;;;;;;;;;0.57;100.00;91759.00;5072085;28;20433;-80
2021/12/07 07:37:50;;;;;;;;;;;;;;;0.50;100.00;91769.06;5071599;28;19929;-79
2021/12/07 07:40:19;;;;;;;;;;;;;;;0.45;100.00;91769.59;5071930;28;19924;-79
2021/12/07 07:42:46;;;;;;;;;;;;;;;0.51;100.00;91758.00;5071724;28;19928;-80
2021/12/07 07:45:12;;;;;;;;;;;;;;;0.45;100.00;91768.81;5071687;28;19929;-79
2021/12/07 07:47:39;;;;;;;;;;;;;;;0.33;100.00;91763.50;5071795;28;19928;-80
2021/12/07 07:50:07;;;;;;;;;;;;;;;0.50;100.00;91764.78;5071661;28;19931;-80
2021/12/07 07:52:33;;;;;;;;;;;;;;;0.61;100.00;91767.78;5071011;28;20338;-84
2021/12/07 07:55:00;;;;;;;;;;;;;;;0.38;100.00;91768.78;5071547;28;19924;-80
2021/12/07 07:57:28;;;;;;;;;;;;;;;0.34;100.00;91763.31;5067456;28;19936;-79
2021/12/07 07:59:55;;;;;;;;;;;;;;;0.27;100.00;91767.53;5069742;28;20334;-80
2021/12/07 08:02:21;;;;;;;;;;;;;;;0.11;100.00;91761.78;5071151;28;20407;-79
2021/12/07 08:04:48;;;;;;;;;;;;;;;0.20;100.00;91764.19;5071570;28;19928;-79
2021/12/07 08:07:14;;;;;;;;;;;;;;;0.24;100.00;91760.34;5070981;28;19971;-79
2021/12/07 08:09:41;;;;;;;;;;;;;;;0.33;100.00;91761.75;5071227;28;19934;-79
2021/12/07 08:12:08;;;;;;;;;;;;;;;0.35;100.00;91757.31;5070994;28;19970;-79
2021/12/07 08:14:36;;;;;;;;;;;;;;;0.29;100.00;91762.31;5071307;28;19928;-79
2021/12/07 08:17:03;;;;;;;;;;;;;;;0.45;100.00;91772.13;5070763;28;20384;-79
2021/12/07 08:19:30;;;;;;;;;;;;;;;0.49;100.00;91770.00;5071074;28;19931;-79
2021/12/07 08:21:57;;;;;;;;;;;;;;;0.58;100.00;91775.72;5070552;28;20403;-80
2021/12/07 08:24:23;;;;;;;;;;;;;;;0.70;100.00;91781.84;5070766;28;20414;-80
2021/12/07 08:26:50;;;;;;;;;;;;;;;0.49;100.00;91778.38;5070832;28;19925;-81
2021/12/07 08:29:16;;;;;;;;;;;;;;;0.36;100.00;91781.59;5070970;28;19925;-80
2021/12/07 08:31:44;;;;;;;;;;;;;;;0.45;100.00;91771.34;5070860;28;19928;-80
2021/12/07 08:34:11;;;;;;;;;;;;;;;0.27;100.00;91775.09;5070569;28;20422;-80
2021/12/07 08:36:37;;;;;;;;;;;;;;;0.30;100.00;91773.97;5070810;28;19986;-80
2021/12/07 08:39:04;;;;;;;;;;;;;;;0.23;100.00;91777.22;5070633;28;20399;-80
2021/12/07 08:41:31;;;;;;;;;;;;;;;0.35;100.00;91781.78;5070750;28;19929;-80
2021/12/07 08:43:57;;;;;;;;;;;;;;;0.48;100.00;91781.09;5070415;28;19928;-79
2021/12/07 08:46:24;;;;;;;;;;;;;;;0.64;100.00;91780.81;5070316;28;19970;-79
2021/12/07 08:48:52;;;;;;;;;;;;;;;0.85;100.00;91783.47;5070501;28;19974;-80
2021/12/07 08:51:19;;;;;;;;;;;;;;;0.99;100.00;91782.59;5070683;28;20346;-80
2021/12/07 08:53:51;;;;;;;;;;;;;;;0.94;100.00;91777.31;5070451;28;19928;-80
2021/12/07 09:01:45;;;;;;;;;;;;;;;0.55;100.00;91788.72;5070166;28;19966;-80
2021/12/07 09:04:17;;;;;;;;;;;;;;;0.61;100.00;91788.75;5069521;28;19925;-80
2021/12/07 09:06:44;;;;;;;;;;;;;;;0.69;100.00;91790.38;5070143;28;19924;-79
2021/12/07 09:09:10;;;;;;;;;;;;;;;0.90;100.00;91794.59;5070341;28;19931;-79
2021/12/07 09:11:37;;;;;;;;;;;;;;;0.95;100.00;91794.03;5070286;28;19924;-79
2021/12/07 09:14:03;;;;;;;;;;;;;;;0.77;100.00;91790.25;5069900;28;19928;-79
2021/12/07 09:16:30;;;;;;;;;;;;;;;0.59;100.00;91793.22;5069667;28;19924;-79
2021/12/07 09:18:56;;;;;;;;;;;;;;;0.57;100.00;91789.31;5070219;28;19982;-79
2021/12/07 09:21:25;;;;;;;;;;;;;;;0.78;100.00;91789.25;5069732;28;19924;-79
2021/12/07 09:23:52;;;;;;;;;;;;;;;0.76;100.00;91796.25;5069761;28;19936;-79
2021/12/07 09:26:20;;;;;;;;;;;;;;;0.77;100.00;91797.03;5069203;28;21609;-79
2021/12/07 09:28:47;;;;;;;;;;;;;;;0.99;100.00;91796.97;5070113;28;19932;-82
2021/12/07 09:31:14;;;;;;;;;;;;;;;1.16;100.00;91788.09;5069507;28;20497;-80
2021/12/07 09:33:42;;;;;;;;;;;;;;;1.03;100.00;91785.50;5069894;28;19925;-79
2021/12/07 09:36:09;;;;;;;;;;;;;;;1.06;100.00;91782.59;5070129;28;20018;-79
2021/12/07 09:38:37;;;;;;;;;;;;;;;1.12;100.00;91781.88;5069734;28;19929;-79
2021/12/07 09:41:05;;;;;;;;;;;;;;;0.73;100.00;91783.19;5069799;28;19940;-79
2021/12/07 09:43:31;;;;;;;;;;;;;;;0.38;100.00;91778.91;5070203;28;19935;-79
2021/12/07 09:45:59;;;;;;;;;;;;;;;0.25;100.00;91777.84;5070079;28;19924;-79
2021/12/07 09:48:25;;;;;;;;;;;;;;;0.09;100.00;91773.81;5070433;28;19928;-79
2021/12/07 09:50:53;;;;;;;;;;;;;;;0.02;100.00;91774.69;5069702;28;19929;-79
2021/12/07 09:53:21;;;;;;;;;;;;;;;-0.18;100.00;91776.09;5069683;28;19971;-79
2021/12/07 09:55:49;;;;;;;;;;;;;;;-0.11;100.00;91776.16;5069261;28;20407;-79
2021/12/07 09:58:17;;;;;;;;;;;;;;;0.21;100.00;91776.63;5069458;28;19924;-79
2021/12/07 10:00:45;;;;;;;;;;;;;;;0.39;100.00;91777.91;5069489;28;20349;-80
2021/12/07 10:03:12;;;;;;;;;;;;;;;0.61;100.00;91777.88;5069390;28;20379;-80
2021/12/07 10:05:40;;;;;;;;;;;;;;;0.70;100.00;91776.00;5069759;28;19924;-80
2021/12/07 10:08:08;;;;;;;;;;;;;;;0.68;100.00;91767.81;5069527;28;20391;-80
2021/12/07 10:10:37;;;;;;;;;;;;;;;0.69;100.00;91776.97;5069340;28;19931;-80
2021/12/07 10:13:06;;;;;;;;;;;;;;;0.58;100.00;91770.66;5069680;28;19936;-80
2021/12/07 10:15:33;;;;;;;;;;;;;;;0.11;100.00;91769.38;5069620;28;19951;-81
2021/12/07 10:18:04;;;;;;;;;;;;;;;0.11;100.00;91766.06;5073337;28;19925;-81
2021/12/07 10:20:38;;;;;;;;;;;;;;;0.03;100.00;91756.84;5073384;28;20029;-81
2021/12/07 10:23:05;;;;;;;;;;;;;;;0.05;100.00;91766.78;5069649;28;19932;-81
2021/12/07 10:25:32;;;;;;;;;;;;;;;0.10;100.00;91756.91;5071841;28;19928;-81
2021/12/07 10:27:58;;;;;;;;;;;;;;;-0.15;100.00;91752.22;5072573;28;20372;-81
2021/12/07 10:30:29;;;;;;;;;;;;;;;-0.04;100.00;91748.44;5073810;28;19929;-81
2021/12/07 10:33:00;;;;;;;;;;;;;;;-0.04;100.00;91745.94;5073717;28;19994;-82
2021/12/07 10:35:28;;;;;;;;;;;;;;;-0.20;100.00;91741.88;5072774;28;19982;-81
2021/12/07 10:38:07;;;;;;;;;;;;;;;-0.18;100.00;91728.13;5072566;28;19925;-81
2021/12/07 10:40:34;;;;;;;;;;;;;;;-0.15;100.00;91740.41;5072872;28;19931;-80
2021/12/07 10:43:00;;;;;;;;;;;;;;;-0.17;100.00;91736.50;5072710;28;19925;-81
2021/12/07 10:45:29;;;;;;;;;;;;;;;-0.03;100.00;91730.59;5072959;28;20015;-81
2021/12/07 10:47:56;;;;;;;;;;;;;;;-0.05;100.00;91732.50;5072711;28;19931;-80
2021/12/07 10:50:23;;;;;;;;;;;;;;;0.16;100.00;91735.19;5072757;28;19935;-81
2021/12/07 10:52:50;;;;;;;;;;;;;;;0.44;100.00;91735.22;5072374;28;20024;-80
2021/12/07 10:55:17;;;;;;;;;;;;;;;0.48;100.00;91743.19;5072532;28;19928;-80
2021/12/07 10:57:45;;;;;;;;;;;;;;;0.36;100.00;91751.28;5072350;28;19925;-80
2021/12/07 11:00:15;;;;;;;;;;;;;;;0.32;100.00;91737.44;5072424;28;19925;-80
2021/12/07 11:02:54;;;;;;;;;;;;;;;0.29;100.00;91737.03;5072476;28;19924;-80
2021/12/07 11:05:22;;;;;;;;;;;;;;;0.38;100.00;91731.66;5072179;28;20465;-80
2021/12/07 11:07:50;;;;;;;;;;;;;;;0.55;100.00;91735.66;5072225;28;19934;-80
2021/12/07 11:10:20;;;;;;;;;;;;;;;0.28;100.00;91728.69;5072610;28;20334;-80
2021/12/07 11:12:52;;;;;;;;;;;;;;;0.20;100.00;91729.63;5072375;28;19936;-81
2021/12/07 11:15:23;;;;;;;;;;;;;;;0.21;100.00;91726.13;5072005;28;19990;-80
2021/12/07 11:17:52;;;;;;;;;;;;;;;0.21;100.00;91731.16;5071893;28;19924;-81
2021/12/07 11:20:19;;;;;;;;;;;;;;;0.25;100.00;91724.78;5072021;28;20400;-81
2021/12/07 11:22:48;;;;;;;;;;;;;;;0.10;100.00;91717.28;5072192;28;19931;-81
2021/12/07 11:25:31;;;;;;;;;;;;;;;-0.12;100.00;91703.91;5072040;28;19925;-81
2021/12/07 11:30:38;;;;;;;;;;;;;;;-0.25;100.00;91703.78;5048687;28;19936;-81
2021/12/07 11:33:06;;;;;;;;;;;;;;;-0.13;100.00;91702.38;5072052;28;19932;-80
2021/12/07 11:35:34;;;;;;;;;;;;;;;-0.09;100.00;91712.88;5071850;28;19928;-81
2021/12/07 11:38:01;;;;;;;;;;;;;;;0.07;100.00;91717.66;5071799;28;20357;-80
2021/12/07 11:40:29;;;;;;;;;;;;;;;0.35;100.00;91721.94;5071860;28;19925;-81
2021/12/07 11:42:56;;;;;;;;;;;;;;;0.27;100.00;91729.63;5071776;28;19924;-81
2021/12/07 11:45:25;;;;;;;;;;;;;;;0.03;100.00;91725.78;5072024;28;19932;-80
2021/12/07 11:47:53;;;;;;;;;;;;;;;-0.05;100.00;91724.19;5071491;28;20376;-80
2021/12/07 11:50:28;;;;;;;;;;;;;;;0.05;100.00;91724.63;5071536;28;19955;-80
2021/12/07 11:52:56;;;;;;;;;;;;;;;0.15;100.00;91721.00;5071396;28;19936;-79
2021/12/07 11:55:24;;;;;;;;;;;;;;;0.22;100.00;91726.88;5071567;28;19939;-80
2021/12/07 11:57:51;;;;;;;;;;;;;;;0.24;100.00;91730.03;5071350;28;19924;-79
2021/12/07 12:00:19;;;;;;;;;;;;;;;0.34;100.00;91724.66;5071305;28;20307;-79
2021/12/07 12:02:46;;;;;;;;;;;;;;;0.66;100.00;91717.47;5071579;28;19928;-79
2021/12/07 12:05:12;;;;;;;;;;;;;;;0.53;100.00;91718.94;5071123;28;20310;-81
2021/12/07 12:07:44;;;;;;;;;;;;;;;0.35;100.00;91721.94;5067566;28;20322;-80
2021/12/07 12:10:12;;;;;;;;;;;;;;;0.23;100.00;91719.13;5069111;28;20019;-80
2021/12/07 12:12:46;;;;;;;;;;;;;;;0.49;100.00;91709.38;5069731;28;19924;-80
2021/12/07 12:15:18;;;;;;;;;;;;;;;0.34;100.00;91722.91;5071082;28;19935;-80
2021/12/07 12:17:52;;;;;;;;;;;;;;;0.50;100.00;91723.56;5070412;28;19924;-80
2021/12/07 12:20:25;;;;;;;;;;;;;;;0.48;100.00;91707.81;5071209;28;20296;-80
2021/12/07 12:22:56;;;;;;;;;;;;;;;0.36;100.00;91715.13;5070887;28;19929;-80
2021/12/07 12:25:23;;;;;;;;;;;;;;;0.24;100.00;91713.13;5070950;28;19993;-80
2021/12/07 12:27:51;;;;;;;;;;;;;;;0.15;100.00;91706.66;5070941;28;19925;-79
2021/12/07 12:30:20;;;;;;;;;;;;;;;0.27;100.00;91709.44;5070371;28;20380;-80
2021/12/07 12:32:49;;;;;;;;;;;;;;;0.22;100.00;91710.00;5070582;28;19939;-80
2021/12/07 12:35:15;;;;;;;;;;;;;;;0.14;100.00;91705.09;5070507;28;20429;-80
2021/12/07 12:37:46;;;;;;;;;;;;;;;0.10;100.00;91703.91;5070724;28;19924;-80
2021/12/07 12:40:20;;;;;;;;;;;;;;;0.30;100.00;91705.75;5069576;28;20060;-80
2021/12/07 12:42:48;;;;;;;;;;;;;;;0.28;100.00;91695.06;5070609;28;20399;-80
2021/12/07 12:45:20;;;;;;;;;;;;;;;0.25;100.00;91701.28;5070504;28;19928;-80
2021/12/07 12:47:53;;;;;;;;;;;;;;;0.42;100.00;91709.38;5070286;28;19924;-80
2021/12/07 12:50:21;;;;;;;;;;;;;;;0.24;100.00;91720.69;5070402;28;19928;-80
2021/12/07 12:52:49;;;;;;;;;;;;;;;0.00;100.00;91724.41;5070494;28;19928;-79
2021/12/07 12:55:43;;;;;;;;;;;;;;;0.01;100.00;91725.97;5070041;28;19928;-80
2021/12/07 12:58:13;;;;;;;;;;;;;;;-0.12;100.00;91724.13;5069898;28;19931;-80
2021/12/07 13:01:04;;;;;;;;;;;;;;;-0.14;100.00;91729.34;5070143;28;19943;-80
2021/12/07 13:03:44;;;;;;;;;;;;;;;-0.17;100.00;91731.44;5070327;28;19931;-80
2021/12/07 13:06:12;;;;;;;;;;;;;;;-0.21;100.00;91732.75;5070517;28;20425;-80
2021/12/07 13:08:51;;;;;;;;;;;;;;;-0.28;100.00;91733.47;5070288;28;20017;-80
2021/12/07 13:11:30;;;;;;;;;;;;;;;-0.22;100.00;91739.56;5069805;28;19928;-80
2021/12/07 13:13:58;;;;;;;;;;;;;;;-0.45;100.00;91743.03;5069962;28;19935;-80
2021/12/07 13:16:25;;;;;;;;;;;;;;;-0.59;100.00;91741.34;5070467;28;20334;-80
2021/12/07 13:18:59;;;;;;;;;;;;;;;-0.45;100.00;91743.03;5069887;28;19944;-80
2021/12/07 13:21:26;;;;;;;;;;;;;;;-0.56;100.00;91746.81;5070096;28;19928;-79
2021/12/07 13:23:59;;;;;;;;;;;;;;;-0.77;100.00;91749.28;5070228;28;19928;-79
2021/12/07 13:26:26;;;;;;;;;;;;;;;-0.66;100.00;91753.88;5069866;28;19931;-79
2021/12/07 13:29:04;;;;;;;;;;;;;;;-0.76;100.00;91753.34;5069915;28;19983;-79
2021/12/07 13:31:35;;;;;;;;;;;;;;;-0.85;100.00;91753.47;5069657;28;19932;-79
2021/12/07 13:34:03;;;;;;;;;;;;;;;-0.76;100.00;91753.34;5070182;28;19935;-80
2021/12/07 13:36:32;;;;;;;;;;;;;;;-0.73;100.00;91748.78;5066401;28;20024;-80
2021/12/07 13:39:00;;;;;;;;;;;;;;;-0.93;100.00;91760.34;5067732;28;19924;-80
2021/12/07 13:41:26;;;;;;;;;;;;;;;-1.06;100.00;91766.81;5069005;28;19924;-79
2021/12/07 13:43:53;;;;;;;;;;;;;;;-1.05;100.00;91760.81;5069918;28;19928;-79
2021/12/07 13:46:23;;;;;;;;;;;;;;;-0.97;100.00;91768.25;5069671;28;19967;-80
2021/12/07 13:48:50;;;;;;;;;;;;;;;-1.03;100.00;91765.66;5069812;28;19924;-80
2021/12/07 13:51:18;;;;;;;;;;;;;;;-1.00;100.00;91765.31;5071078;28;19993;-80
2021/12/07 13:53:45;;;;;;;;;;;;;;;-0.97;100.00;91764.97;5073700;28;19932;-79
2021/12/07 13:56:12;;;;;;;;;;;;;;;-1.04;100.00;91774.16;4890904;28;5001216;-80
2021/12/07 13:59:00;;;;;;;;;;;;;;;-1.00;100.00;91771.13;5073658;28;19926;-80
2021/12/07 14:01:29;;;;;;;;;;;;;;;-1.13;100.00;91776.78;5070344;28;19931;-79
2021/12/07 14:03:56;;;;;;;;;;;;;;;-1.08;100.00;91777.06;5073664;28;20314;-80
2021/12/07 14:06:23;;;;;;;;;;;;;;;-1.10;100.00;91786.50;5073493;28;20027;-80